WetterOnline ( https://www.wetteronline.de )

Wetter aktuell Feldberg Gipfel

Aktuelles Wetter: Feldberg/Schwarzwald (1493m)

6-stündlich | Neueste Meldungen
Ortszeit Temperatur Wetter
Mi, 01.02. 1:00 -3.6° C Nebel
Di, 31.01. 19:00 -4.4° C Nebel
Di, 31.01. 13:00 -5.6° C Nebel
Di, 31.01. 7:00 -6.2° C Nebel
Di, 31.01. 1:00 -5.3° C Nebel
Mo, 30.01. 19:00 -4.2° C Nebel
Mo, 30.01. 13:00 -6.5° C Nebel
Mo, 30.01. 7:00 -4.7° C bewölkt
Ortszeit Temperatur Wetter
Mi, 01.02. 2:30 -3.7° C Nebel
Mi, 01.02. 2:20 -3.7° C Nebel
Mi, 01.02. 2:10 -3.7° C Nebel
Mi, 01.02. 2:00 -3.8° C Schneefall
Mi, 01.02. 1:50 -3.8° C Schneefall
Mi, 01.02. 1:40 -3.8° C Nebel
Mi, 01.02. 1:30 -3.8° C Schneefall
Mi, 01.02. 1:00 -3.6° C Nebel
Mi, 01.02. 0:30 -3.7° C Nebel
Mi, 01.02. 0:00 -3.8° C Nebel
Di, 31.01. 23:30 -3.9° C leichter Schneefall
Ortszeit Relative Feuchte Sichtweite
Mi, 01.02. 1:00 95% <100 m
Di, 31.01. 19:00 95% <100 m
Di, 31.01. 13:00 93% 100 m
Di, 31.01. 7:00 93% 0.7 km
Di, 31.01. 1:00 94% <100 m
Mo, 30.01. 19:00 96% <100 m
Mo, 30.01. 13:00 94% <100 m
Mo, 30.01. 7:00 36% 60 km
Ortszeit Relative Feuchte Sichtweite
Mi, 01.02. 2:30 95% <100 m
Mi, 01.02. 2:20 95% -
Mi, 01.02. 2:10 96% -
Mi, 01.02. 2:00 96% 100 m
Mi, 01.02. 1:50 96% -
Mi, 01.02. 1:40 96% -
Mi, 01.02. 1:30 96% 100 m
Mi, 01.02. 1:00 95% <100 m
Mi, 01.02. 0:30 95% <100 m
Mi, 01.02. 0:00 95% <100 m
Di, 31.01. 23:30 95% <100 m
Ortszeit Niederschlagsmenge Niederschlagsart
Mi, 01.02. 1:00 0.1 l/m2 in 6 Std. Schnee
Di, 31.01. 19:00 0.1 l/m2 in 12 Std. Schnee
Di, 31.01. 13:00 0.0 l/m2 in 6 Std. -
Di, 31.01. 7:00 0.1 l/m2 in 12 Std. -
Di, 31.01. 1:00 0.1 l/m2 in 6 Std. Schnee
Mo, 30.01. 19:00 0.1 l/m2 in 12 Std. Schnee
Mo, 30.01. 13:00 0.1 l/m2 in 6 Std. Schnee
Mo, 30.01. 7:00 0.0 l/m2 in 12 Std. -
Ortszeit Niederschlagsmenge Niederschlagsart
Mi, 01.02. 2:30 <0.05 l/m2 in 30 Min -
Mi, 01.02. 2:20 keine Meldung -
Mi, 01.02. 2:10 keine Meldung -
Mi, 01.02. 2:00 <0.05 l/m2 in 1 Std. Schnee
Mi, 01.02. 1:50 keine Meldung -
Mi, 01.02. 1:40 keine Meldung -
Mi, 01.02. 1:30 <0.05 l/m2 in 30 Min -
Mi, 01.02. 1:00 <0.05 l/m2 in 1 Std. Schnee
Mi, 01.02. 0:30 <0.05 l/m2 in 30 Min -
Mi, 01.02. 0:00 <0.05 l/m2 in 1 Std. Schnee
Di, 31.01. 23:30 <0.05 l/m2 in 30 Min -
Ortszeit Stärke Spitze Richtung
km/h Bft. km/h Grad Sektor
Mi, 01.02. 1:00 39 6 65 220° SW
Di, 31.01. 19:00 56 7 69 250° W
Di, 31.01. 13:00 29 5 50 240° SW
Di, 31.01. 7:00 22 4 32 270° W
Di, 31.01. 1:00 22 4 48 330° NW
Mo, 30.01. 19:00 28 4 74 300° NW
Mo, 30.01. 13:00 41 6 67 220° SW
Mo, 30.01. 7:00 39 6 59 260° W
Ortszeit Stärke Spitze Richtung
km/h Bft. km/h Grad Sektor
Mi, 01.02. 2:30 35 5 46 230° SW
Mi, 01.02. 2:20 35 5 - 230° SW
Mi, 01.02. 2:10 36 5 - 230° SW
Mi, 01.02. 2:00 37 5 48 220° SW
Mi, 01.02. 1:50 37 5 - 220° SW
Mi, 01.02. 1:40 40 6 - 230° SW
Mi, 01.02. 1:30 39 6 48 230° SW
Mi, 01.02. 1:00 39 6 52 220° SW
Mi, 01.02. 0:30 41 6 52 210° SW
Mi, 01.02. 0:00 39 6 50 210° SW
Di, 31.01. 23:30 37 5 50 210° SW
Ortszeit Untergrenze Bedeckung Gattung
total tief tief mittel hoch
Mi, 01.02. 1:00 <30 m 8/8 0/8 - - -
Di, 31.01. 19:00 <30 m 8/8 0/8 - - -
Di, 31.01. 13:00 <30 m 8/8 0/8 - - -
Di, 31.01. 7:00 <30 m 8/8 0/8 - - -
Di, 31.01. 1:00 <30 m 8/8 0/8 - - -
Mo, 30.01. 19:00 <30 m 8/8 0/8 - - -
Mo, 30.01. 13:00 <30 m 8/8 0/8 - - -
Mo, 30.01. 7:00 2100 m 7/8 7/8 - - -
Ortszeit Bedeckungsgrad in Achtel und Wolkenuntergrenze
Mi, 01.02. 2:30 8(<30m)
Mi, 01.02. 2:20 8(<30m)
Mi, 01.02. 2:10 8
Mi, 01.02. 2:00 7(30m)
Mi, 01.02. 1:50 7(30m)
Mi, 01.02. 1:40 7
Mi, 01.02. 1:30 7(<30m)
Mi, 01.02. 1:00 8(<30m)
Mi, 01.02. 0:30 8(<30m)
Mi, 01.02. 0:00 8(<30m)
Di, 31.01. 23:30 7(<30m)
Ortszeit Stationsdruck (hPa) Tendenz (hPa in 3 Std.)
Mi, 01.02. 1:00 854 - 0,7
Di, 31.01. 19:00 854 + 0,3
Di, 31.01. 13:00 855 - 0,3
Di, 31.01. 7:00 854 + 0,4
Di, 31.01. 1:00 854 + 0,3
Mo, 30.01. 19:00 853 + 2,0
Mo, 30.01. 13:00 850 - 0,9
Mo, 30.01. 7:00 850 - 1,0
Ortszeit Stationsdruck (hPa) Tendenz (hPa in 3 Std.)
Mi, 01.02. 2:30 853 - 1,0
Mi, 01.02. 2:20 853 keine Meldung
Mi, 01.02. 2:10 853 keine Meldung
Mi, 01.02. 2:00 853 - 1,3
Mi, 01.02. 1:50 853 keine Meldung
Mi, 01.02. 1:40 853 keine Meldung
Mi, 01.02. 1:30 853 - 1,1
Mi, 01.02. 1:00 854 - 0,7
Mi, 01.02. 0:30 854 - 0,9
Mi, 01.02. 0:00 854 - 0,5
Di, 31.01. 23:30 854 - 0,6
Ortszeit Schneehöhe (cm)
Mi, 01.02. 1:00 88
Di, 31.01. 19:00 88
Di, 31.01. 13:00 88
Di, 31.01. 7:00 88
Di, 31.01. 1:00 88
Mo, 30.01. 19:00 89
Mo, 30.01. 13:00 88
Mo, 30.01. 7:00 88
Ortszeit Schneehöhe (cm)
Mi, 01.02. 2:30 88
Mi, 01.02. 2:20 88
Mi, 01.02. 2:10 88
Mi, 01.02. 2:00 88
Mi, 01.02. 1:50 88
Mi, 01.02. 1:40 88
Mi, 01.02. 1:30 88
Mi, 01.02. 1:00 88
Mi, 01.02. 0:30 88
Mi, 01.02. 0:00 88
Di, 31.01. 23:30 88
Link zu dieser Seite / Seite empfehlen

Das Wetter in ...